createdAt,value
2018-10-06T00:01:15.704Z,26.00
2018-10-06T00:03:48.889Z,26.20
2018-10-06T00:06:21.870Z,26.20
2018-10-06T00:08:54.645Z,26.20
2018-10-06T00:11:27.443Z,25.90
2018-10-06T00:14:00.203Z,25.70
2018-10-06T00:16:32.956Z,25.60
2018-10-06T00:19:05.723Z,25.20
2018-10-06T00:21:38.579Z,24.70
2018-10-06T00:24:11.598Z,24.70
2018-10-06T00:26:44.386Z,24.70
2018-10-06T00:29:16.704Z,24.90
2018-10-06T00:31:49.554Z,25.00
2018-10-06T00:34:22.164Z,24.90
2018-10-06T00:36:55.216Z,25.10
2018-10-06T00:39:27.844Z,25.10
2018-10-06T00:42:00.899Z,25.10
2018-10-06T00:44:33.495Z,25.00
2018-10-06T00:47:06.412Z,25.10
2018-10-06T00:49:39.417Z,25.20
2018-10-06T00:52:12.244Z,25.20
2018-10-06T00:54:45.277Z,25.20
2018-10-06T00:57:18.120Z,25.20
2018-10-06T00:59:51.101Z,24.90
2018-10-06T01:02:23.492Z,24.90
2018-10-06T01:04:56.124Z,24.80
2018-10-06T01:07:29.051Z,24.90
2018-10-06T01:10:01.790Z,25.00
2018-10-06T01:12:35.022Z,25.10
2018-10-06T01:15:08.126Z,25.10
2018-10-06T01:17:40.773Z,25.20
2018-10-06T01:20:13.469Z,25.20
2018-10-06T01:22:46.200Z,24.80
2018-10-06T01:25:18.987Z,24.60
2018-10-06T01:27:51.874Z,24.70
2018-10-06T01:30:24.790Z,24.60
2018-10-06T01:32:57.716Z,24.60
2018-10-06T01:35:30.465Z,24.80
2018-10-06T01:38:03.407Z,24.90
2018-10-06T01:40:36.501Z,24.90
2018-10-06T01:43:09.616Z,24.80
2018-10-06T01:45:42.663Z,24.80
2018-10-06T01:48:15.835Z,24.90
2018-10-06T01:50:48.660Z,24.90
2018-10-06T01:53:21.816Z,24.50
2018-10-06T01:55:54.749Z,24.20
2018-10-06T01:58:29.267Z,24.20
2018-10-06T02:01:02.196Z,24.30
2018-10-06T02:03:35.260Z,24.20
2018-10-06T02:06:09.053Z,24.20
2018-10-06T02:08:42.488Z,24.20
2018-10-06T02:11:15.251Z,24.10
2018-10-06T02:13:48.443Z,24.10
2018-10-06T02:16:21.257Z,24.00
2018-10-06T02:18:54.066Z,23.70
2018-10-06T02:21:26.814Z,23.70
2018-10-06T02:24:00.259Z,23.70
2018-10-06T02:26:32.910Z,23.60
2018-10-06T02:29:05.671Z,23.80
2018-10-06T02:31:38.264Z,23.70
2018-10-06T02:34:10.983Z,23.70
2018-10-06T02:36:44.060Z,23.90
2018-10-06T02:39:16.800Z,23.90
2018-10-06T02:41:49.420Z,24.00
2018-10-06T02:44:22.296Z,24.10
2018-10-06T02:46:55.057Z,24.20
2018-10-06T02:49:27.923Z,24.20
2018-10-06T02:52:00.891Z,24.00
2018-10-06T02:54:33.947Z,24.10
2018-10-06T02:57:06.808Z,23.80
2018-10-06T02:59:39.583Z,23.80
2018-10-06T03:02:12.247Z,23.90
2018-10-06T03:04:45.255Z,24.10
2018-10-06T03:07:18.200Z,23.90
2018-10-06T03:09:51.138Z,24.00
2018-10-06T03:12:23.356Z,23.80
2018-10-06T03:14:56.363Z,23.80
2018-10-06T03:17:29.191Z,23.80
2018-10-06T03:20:02.122Z,23.80
2018-10-06T03:22:34.939Z,23.90
2018-10-06T03:25:08.037Z,24.10
2018-10-06T03:27:41.140Z,24.20
2018-10-06T03:30:14.235Z,24.20
2018-10-06T03:32:46.984Z,24.30
2018-10-06T03:35:20.086Z,24.40
2018-10-06T03:37:52.890Z,24.40
2018-10-06T03:40:25.724Z,24.50
2018-10-06T03:42:58.615Z,24.50
2018-10-06T03:45:31.352Z,24.50
2018-10-06T03:48:04.131Z,24.30
2018-10-06T03:50:37.020Z,24.30
2018-10-06T03:53:09.750Z,24.30
2018-10-06T03:55:42.874Z,24.50
2018-10-06T03:58:15.404Z,24.40
2018-10-06T04:00:47.895Z,24.40
2018-10-06T04:03:20.872Z,24.10
2018-10-06T04:05:53.689Z,24.10
2018-10-06T04:08:26.539Z,23.80
2018-10-06T04:10:59.425Z,23.90
2018-10-06T04:13:32.132Z,23.90
2018-10-06T04:16:05.069Z,24.10
2018-10-06T04:18:37.957Z,24.20
2018-10-06T04:21:11.075Z,24.10
2018-10-06T04:23:43.772Z,24.10
2018-10-06T04:26:16.587Z,24.10
2018-10-06T04:28:49.030Z,24.10
2018-10-06T04:31:21.924Z,24.00
2018-10-06T04:33:54.475Z,24.10
2018-10-06T04:36:27.573Z,24.10
2018-10-06T04:39:00.531Z,24.10
2018-10-06T04:41:33.403Z,24.00
2018-10-06T04:44:06.272Z,24.10
2018-10-06T04:46:38.892Z,24.20
2018-10-06T04:49:11.619Z,24.10
2018-10-06T04:51:44.214Z,24.00
2018-10-06T04:54:16.990Z,23.90
2018-10-06T04:56:49.943Z,24.00
2018-10-06T04:59:22.644Z,24.00
2018-10-06T05:01:55.365Z,23.90
2018-10-06T05:04:27.964Z,23.60
2018-10-06T05:07:00.745Z,23.80
2018-10-06T05:09:33.469Z,23.70
2018-10-06T05:12:06.407Z,23.60
2018-10-06T05:14:39.247Z,23.60
2018-10-06T05:17:12.228Z,23.60
2018-10-06T05:19:45.243Z,23.60
2018-10-06T05:22:18.017Z,23.60
2018-10-06T05:24:50.624Z,23.60
2018-10-06T05:27:23.569Z,23.60
2018-10-06T05:29:56.463Z,23.40
2018-10-06T05:32:29.481Z,23.30
2018-10-06T05:35:02.302Z,23.10
2018-10-06T05:37:35.458Z,23.20
2018-10-06T05:40:08.532Z,23.30
2018-10-06T05:42:41.500Z,23.40
2018-10-06T05:45:14.346Z,23.30
2018-10-06T05:47:47.224Z,23.30
2018-10-06T05:50:20.034Z,23.30
2018-10-06T05:52:53.348Z,22.90
2018-10-06T05:55:26.192Z,22.90
2018-10-06T05:57:59.483Z,23.00
2018-10-06T06:00:32.971Z,23.00
2018-10-06T06:03:05.754Z,23.10
2018-10-06T06:05:38.306Z,23.10
2018-10-06T06:08:10.979Z,23.20
2018-10-06T06:10:43.959Z,23.00
2018-10-06T06:13:16.927Z,23.00
2018-10-06T06:15:49.635Z,23.00
2018-10-06T06:18:22.643Z,23.10
2018-10-06T06:20:55.592Z,23.10
2018-10-06T06:23:28.509Z,23.00
2018-10-06T06:26:01.284Z,23.00
2018-10-06T06:28:34.132Z,22.90
2018-10-06T06:31:06.899Z,22.70
2018-10-06T06:33:39.864Z,22.80
2018-10-06T06:36:12.630Z,22.80
2018-10-06T06:38:45.520Z,22.70
2018-10-06T06:41:18.311Z,22.70
2018-10-06T06:43:51.067Z,22.90
2018-10-06T06:46:23.931Z,22.90
2018-10-06T06:48:56.791Z,22.90
2018-10-06T06:51:29.468Z,23.00
2018-10-06T06:54:02.070Z,23.10
2018-10-06T06:56:34.879Z,23.10
2018-10-06T06:59:07.814Z,23.10
2018-10-06T07:01:40.516Z,23.10
2018-10-06T07:04:13.759Z,22.90
2018-10-06T07:06:46.730Z,23.00
2018-10-06T07:09:19.863Z,23.00
2018-10-06T07:11:52.681Z,22.90
2018-10-06T07:14:25.697Z,22.80
2018-10-06T07:16:58.534Z,22.60
2018-10-06T07:19:31.572Z,22.70
2018-10-06T07:22:04.148Z,22.70
2018-10-06T07:24:37.078Z,22.70
2018-10-06T07:27:09.804Z,22.90
2018-10-06T07:29:42.705Z,22.80
2018-10-06T07:32:15.462Z,22.70
2018-10-06T07:34:48.280Z,22.60
2018-10-06T07:37:20.810Z,22.70
2018-10-06T07:39:53.818Z,22.80
2018-10-06T07:42:26.480Z,23.00
2018-10-06T07:44:59.301Z,22.90
2018-10-06T07:47:32.383Z,23.10
2018-10-06T07:50:05.312Z,23.20
2018-10-06T07:52:38.217Z,23.10
2018-10-06T07:55:10.999Z,23.10
2018-10-06T07:57:43.737Z,23.20
2018-10-06T08:00:16.683Z,23.20
2018-10-06T08:02:49.544Z,23.20
2018-10-06T08:05:22.432Z,22.90
2018-10-06T08:07:56.005Z,22.80
2018-10-06T08:10:28.775Z,22.70
2018-10-06T08:13:01.471Z,22.60
2018-10-06T08:15:34.116Z,22.70
2018-10-06T08:18:06.727Z,22.60
2018-10-06T08:20:39.784Z,22.50
2018-10-06T08:23:12.357Z,22.40
2018-10-06T08:25:45.295Z,22.50
2018-10-06T08:28:18.067Z,22.40
2018-10-06T08:30:50.565Z,22.50
2018-10-06T08:33:23.632Z,22.60
2018-10-06T08:35:56.567Z,22.90
2018-10-06T08:38:29.504Z,22.80
2018-10-06T08:41:02.647Z,22.60
2018-10-06T08:43:35.463Z,22.60
2018-10-06T08:46:08.408Z,22.40
2018-10-06T08:48:41.036Z,22.20
2018-10-06T08:51:13.863Z,22.20
2018-10-06T08:53:46.803Z,22.50
2018-10-06T08:56:19.720Z,22.60
2018-10-06T08:58:52.355Z,22.20
2018-10-06T09:01:26.084Z,22.20
2018-10-06T09:03:59.065Z,22.10
2018-10-06T09:06:31.663Z,22.00
2018-10-06T09:09:04.596Z,22.00
2018-10-06T09:11:37.760Z,21.80
2018-10-06T09:14:10.804Z,21.80
2018-10-06T09:16:43.760Z,21.70
2018-10-06T09:19:16.667Z,21.70
2018-10-06T09:21:49.570Z,21.80
2018-10-06T09:24:22.188Z,21.80
2018-10-06T09:26:55.099Z,21.80
2018-10-06T09:29:28.035Z,21.80
2018-10-06T09:32:01.032Z,22.00
2018-10-06T09:34:33.834Z,21.90
2018-10-06T09:37:06.997Z,21.90
2018-10-06T09:39:39.796Z,21.80
2018-10-06T09:42:12.672Z,21.50
2018-10-06T09:44:45.459Z,21.60
2018-10-06T09:47:18.390Z,21.60
2018-10-06T09:49:51.153Z,21.60
2018-10-06T09:52:23.996Z,21.60
2018-10-06T09:54:56.951Z,21.70
2018-10-06T09:57:29.843Z,21.60
2018-10-06T10:00:02.693Z,21.70
2018-10-06T10:02:40.184Z,21.50
2018-10-06T10:05:17.243Z,21.50
2018-10-06T10:07:50.429Z,21.40
2018-10-06T10:10:23.333Z,21.40
2018-10-06T10:12:56.075Z,21.50
2018-10-06T10:15:28.730Z,21.60
2018-10-06T10:18:01.702Z,21.60
2018-10-06T10:20:34.696Z,21.60
2018-10-06T10:23:08.031Z,21.50
2018-10-06T10:25:41.217Z,21.60
2018-10-06T10:28:14.480Z,21.60
2018-10-06T10:30:47.239Z,21.50
2018-10-06T10:33:20.520Z,21.60
2018-10-06T10:35:53.061Z,21.40
2018-10-06T10:38:25.804Z,21.30
2018-10-06T10:40:58.428Z,21.40
2018-10-06T10:43:31.219Z,21.60
2018-10-06T10:46:03.691Z,21.50
2018-10-06T10:48:36.801Z,21.40
2018-10-06T10:51:09.723Z,21.40
2018-10-06T10:53:42.489Z,21.40
2018-10-06T10:56:15.139Z,21.50
2018-10-06T10:58:48.045Z,21.60
2018-10-06T11:01:20.912Z,21.80
2018-10-06T11:03:53.921Z,21.70
2018-10-06T11:06:26.747Z,21.60
2018-10-06T11:08:59.612Z,21.60
2018-10-06T11:11:32.574Z,21.60
2018-10-06T11:14:06.071Z,21.60
2018-10-06T11:16:38.829Z,21.50
2018-10-06T11:19:11.588Z,21.40
2018-10-06T11:21:44.346Z,21.50
2018-10-06T11:24:17.367Z,21.60
2018-10-06T11:26:50.373Z,21.70
2018-10-06T11:29:23.258Z,21.80
2018-10-06T11:31:55.996Z,21.80
2018-10-06T11:34:28.767Z,21.60
2018-10-06T11:37:01.605Z,21.70
2018-10-06T11:39:35.375Z,21.70
2018-10-06T11:42:08.411Z,21.60
2018-10-06T11:44:41.444Z,21.40
2018-10-06T11:47:14.112Z,21.20
2018-10-06T11:49:46.867Z,21.20
2018-10-06T11:52:19.792Z,21.20
2018-10-06T11:54:52.591Z,21.30
2018-10-06T11:57:25.144Z,21.10
2018-10-06T11:59:57.957Z,21.10
2018-10-06T12:02:30.876Z,21.30
2018-10-06T12:05:04.060Z,21.30
2018-10-06T12:07:36.852Z,21.30
2018-10-06T12:10:09.903Z,21.40
2018-10-06T12:12:42.659Z,21.40
2018-10-06T12:15:16.487Z,21.50
2018-10-06T12:17:49.073Z,21.50
2018-10-06T12:20:22.013Z,21.50
2018-10-06T12:22:56.277Z,21.40
2018-10-06T12:25:29.131Z,21.50
2018-10-06T12:28:02.693Z,21.20
2018-10-06T12:30:35.340Z,21.10
2018-10-06T12:33:08.343Z,21.10
2018-10-06T12:35:41.166Z,21.20
2018-10-06T12:38:14.123Z,21.30
2018-10-06T12:40:46.715Z,21.30
2018-10-06T12:43:19.512Z,21.40
2018-10-06T12:45:52.619Z,21.60
2018-10-06T12:48:25.427Z,21.60
2018-10-06T12:50:57.971Z,21.70
2018-10-06T12:53:30.849Z,21.70
2018-10-06T12:56:03.725Z,21.80
2018-10-06T12:58:36.309Z,21.90
2018-10-06T13:01:09.599Z,21.90
2018-10-06T13:03:42.421Z,21.70
2018-10-06T13:06:15.078Z,21.50
2018-10-06T13:08:47.920Z,21.30
2018-10-06T13:11:20.581Z,21.10
2018-10-06T13:13:53.715Z,21.30
2018-10-06T13:16:26.355Z,21.40
2018-10-06T13:18:59.151Z,21.50
2018-10-06T13:21:32.075Z,21.70
2018-10-06T13:24:05.928Z,21.90
2018-10-06T13:26:38.993Z,22.00
2018-10-06T13:29:12.034Z,22.00
2018-10-06T13:31:45.183Z,22.00
2018-10-06T13:34:18.123Z,22.00
2018-10-06T13:36:50.998Z,22.10
2018-10-06T13:39:24.174Z,22.20
2018-10-06T13:41:56.925Z,22.10
2018-10-06T13:44:29.721Z,22.00
2018-10-06T13:47:02.630Z,22.10
2018-10-06T13:49:35.375Z,22.20
2018-10-06T13:52:08.066Z,22.40
2018-10-06T13:54:41.040Z,22.40
2018-10-06T13:57:13.812Z,22.40
2018-10-06T13:59:46.737Z,22.60
2018-10-06T14:02:19.572Z,22.70
2018-10-06T14:04:52.210Z,22.80
2018-10-06T14:07:25.213Z,22.90
2018-10-06T14:09:59.369Z,22.90
2018-10-06T14:12:32.361Z,22.90
2018-10-06T14:15:05.535Z,23.00
2018-10-06T14:17:38.028Z,23.20
2018-10-06T14:20:10.992Z,23.20
2018-10-06T14:22:44.057Z,23.10
2018-10-06T14:25:16.879Z,23.10
2018-10-06T14:27:50.060Z,23.00
2018-10-06T14:30:22.831Z,22.90
2018-10-06T14:32:55.711Z,22.90
2018-10-06T14:35:28.488Z,22.90
2018-10-06T14:38:01.395Z,22.90
2018-10-06T14:40:34.847Z,22.90
2018-10-06T14:43:09.705Z,22.90
2018-10-06T14:45:42.560Z,23.00
2018-10-06T14:48:15.789Z,22.90
2018-10-06T14:50:48.761Z,23.00
2018-10-06T14:53:22.565Z,23.10
2018-10-06T14:55:55.385Z,22.80
2018-10-06T14:58:28.258Z,22.90
2018-10-06T15:01:01.360Z,22.80
2018-10-06T15:03:34.694Z,22.60
2018-10-06T15:06:07.901Z,22.90
2018-10-06T15:08:42.028Z,23.10
2018-10-06T15:11:16.900Z,23.30
2018-10-06T15:13:49.922Z,23.50
2018-10-06T15:16:23.136Z,23.40
2018-10-06T15:18:57.143Z,23.60
2018-10-06T15:21:29.483Z,24.00
2018-10-06T15:24:02.523Z,24.30
2018-10-06T15:26:35.738Z,24.50
2018-10-06T15:29:13.267Z,24.60
2018-10-06T15:31:48.265Z,24.90
2018-10-06T15:34:21.140Z,25.10
2018-10-06T15:36:53.524Z,25.30
2018-10-06T15:39:26.332Z,25.60
2018-10-06T15:41:59.296Z,25.90
2018-10-06T15:44:32.339Z,26.20
2018-10-06T15:47:06.052Z,26.20
2018-10-06T15:49:39.980Z,26.30
2018-10-06T15:52:12.888Z,26.40
2018-10-06T15:54:45.640Z,26.20
2018-10-06T15:57:19.673Z,26.20
2018-10-06T15:59:52.231Z,26.40
2018-10-06T16:02:25.154Z,26.40
2018-10-06T16:04:57.867Z,26.50
2018-10-06T16:07:30.985Z,26.80
2018-10-06T16:10:04.338Z,26.90
2018-10-06T16:12:37.348Z,27.00
2018-10-06T16:15:11.292Z,27.20
2018-10-06T16:17:44.405Z,27.10
2018-10-06T16:20:17.327Z,27.30
2018-10-06T16:22:50.492Z,27.20
2018-10-06T16:25:23.677Z,27.10
2018-10-06T16:27:56.718Z,26.60
2018-10-06T16:30:29.877Z,26.50
2018-10-06T16:33:02.920Z,27.10
2018-10-06T16:35:35.952Z,27.30
2018-10-06T16:38:08.675Z,27.20
2018-10-06T16:40:41.966Z,26.90
2018-10-06T16:43:15.124Z,27.10
2018-10-06T16:45:47.979Z,27.10
2018-10-06T16:48:20.464Z,26.60
2018-10-06T16:50:53.875Z,26.30
2018-10-06T16:53:28.586Z,26.40
2018-10-06T16:56:01.529Z,26.80
2018-10-06T16:58:34.307Z,27.40
2018-10-06T17:01:07.403Z,27.20
2018-10-06T17:03:40.432Z,27.50
2018-10-06T17:06:13.371Z,27.80
2018-10-06T17:08:47.223Z,27.70
2018-10-06T17:11:19.925Z,28.00
2018-10-06T17:13:52.995Z,28.10
2018-10-06T17:16:26.248Z,28.10
2018-10-06T17:18:59.557Z,27.80
2018-10-06T17:21:32.513Z,27.50
2018-10-06T17:24:05.513Z,27.40
2018-10-06T17:26:38.597Z,27.30
2018-10-06T17:29:12.368Z,27.20
2018-10-06T17:31:45.644Z,26.80
2018-10-06T17:34:18.855Z,26.30
2018-10-06T17:36:54.259Z,26.00
2018-10-06T17:39:36.819Z,25.90
2018-10-06T17:42:11.279Z,25.90
2018-10-06T17:44:46.368Z,25.90
2018-10-06T17:47:20.471Z,26.10
2018-10-06T17:50:08.243Z,26.40
2018-10-06T17:52:41.933Z,26.60
2018-10-06T17:55:14.789Z,26.60
2018-10-06T17:57:47.815Z,26.60
2018-10-06T18:00:20.612Z,26.50
2018-10-06T18:02:55.925Z,26.30
2018-10-06T18:05:29.245Z,25.90
2018-10-06T18:08:03.120Z,25.80
2018-10-06T18:10:35.935Z,25.90
2018-10-06T18:13:09.007Z,25.90
2018-10-06T18:15:42.134Z,26.00
2018-10-06T18:18:17.079Z,26.00
2018-10-06T18:20:49.741Z,25.90
2018-10-06T18:23:22.700Z,25.70
2018-10-06T18:25:59.657Z,25.60
2018-10-06T18:28:35.729Z,25.50
2018-10-06T18:31:08.404Z,25.30
2018-10-06T18:33:41.677Z,25.20
2018-10-06T18:36:14.726Z,25.30
2018-10-06T18:38:48.015Z,25.20
2018-10-06T18:41:21.015Z,25.00
2018-10-06T18:43:53.988Z,25.00
2018-10-06T18:46:26.775Z,25.10
2018-10-06T18:48:59.790Z,25.50
2018-10-06T18:51:32.312Z,25.60
2018-10-06T18:54:05.370Z,26.00
2018-10-06T18:56:38.312Z,26.10
2018-10-06T18:59:11.050Z,26.90
2018-10-06T19:01:43.995Z,27.30
2018-10-06T19:04:16.964Z,27.80
2018-10-06T19:06:49.998Z,26.70
2018-10-06T19:09:23.102Z,26.90
2018-10-06T19:11:56.215Z,26.60
2018-10-06T19:14:29.352Z,26.60
2018-10-06T19:17:02.153Z,26.60
2018-10-06T19:19:35.360Z,26.10
2018-10-06T19:22:08.088Z,25.70
2018-10-06T19:24:40.920Z,25.80
2018-10-06T19:27:13.647Z,24.60
2018-10-06T19:29:46.588Z,24.30
2018-10-06T19:32:19.347Z,23.60
2018-10-06T19:34:52.172Z,22.90
2018-10-06T19:37:25.028Z,22.50
2018-10-06T19:39:59.052Z,22.30
2018-10-06T19:42:32.064Z,22.30
2018-10-06T19:45:05.196Z,22.20
2018-10-06T19:47:43.980Z,21.90
2018-10-06T19:50:17.160Z,21.80
2018-10-06T19:52:50.268Z,21.60
2018-10-06T19:55:23.467Z,21.80
2018-10-06T19:57:56.000Z,21.60
2018-10-06T20:00:28.584Z,21.50
2018-10-06T20:03:01.975Z,21.50
2018-10-06T20:05:34.960Z,21.60
2018-10-06T20:08:07.735Z,21.40
2018-10-06T20:10:41.368Z,21.50
2018-10-06T20:13:14.301Z,21.50
2018-10-06T20:15:47.357Z,21.50
2018-10-06T20:18:20.092Z,21.40
2018-10-06T20:20:53.037Z,21.40
2018-10-06T20:23:25.660Z,21.40
2018-10-06T20:25:58.521Z,21.40
2018-10-06T20:28:31.264Z,21.70
2018-10-06T20:31:03.872Z,21.90
2018-10-06T20:33:36.668Z,22.10
2018-10-06T20:36:09.216Z,22.10
2018-10-06T20:38:41.888Z,22.70
2018-10-06T20:41:15.059Z,22.80
2018-10-06T20:43:47.959Z,23.30
2018-10-06T20:46:20.587Z,23.50
2018-10-06T20:48:53.577Z,23.40
2018-10-06T20:51:26.720Z,22.90
2018-10-06T20:53:59.433Z,22.80
2018-10-06T20:56:32.326Z,22.70
2018-10-06T20:59:05.151Z,22.90
2018-10-06T21:01:37.950Z,23.10
2018-10-06T21:04:10.619Z,23.20
2018-10-06T21:06:43.951Z,23.20
2018-10-06T21:09:16.771Z,22.90
2018-10-06T21:11:50.213Z,23.10
2018-10-06T21:14:23.053Z,22.80
2018-10-06T21:16:56.013Z,23.00
2018-10-06T21:19:28.647Z,23.10
2018-10-06T21:22:01.946Z,23.10
2018-10-06T21:24:34.772Z,23.30
2018-10-06T21:27:07.824Z,23.30
2018-10-06T21:29:41.071Z,23.10
2018-10-06T21:32:13.944Z,23.20
2018-10-06T21:34:46.557Z,23.30
2018-10-06T21:37:19.454Z,23.40
2018-10-06T21:39:52.379Z,23.40
2018-10-06T21:42:25.167Z,23.10
2018-10-06T21:44:58.064Z,23.00
2018-10-06T21:47:30.972Z,23.00
2018-10-06T21:50:03.616Z,23.00
2018-10-06T21:52:36.347Z,22.70
2018-10-06T21:55:08.959Z,22.70
2018-10-06T21:57:41.970Z,22.30
2018-10-06T22:00:15.121Z,22.50
2018-10-06T22:02:47.938Z,22.50
2018-10-06T22:05:20.770Z,22.80
2018-10-06T22:07:54.262Z,22.70
2018-10-06T22:10:27.248Z,22.20
2018-10-06T22:12:59.995Z,22.00
2018-10-06T22:15:32.600Z,21.80
2018-10-06T22:18:05.567Z,21.50
2018-10-06T22:20:38.562Z,21.30
2018-10-06T22:23:12.081Z,21.50
2018-10-06T22:25:44.774Z,21.50
2018-10-06T22:28:18.057Z,21.30
2018-10-06T22:30:50.842Z,21.10
2018-10-06T22:33:23.718Z,21.30
2018-10-06T22:35:56.698Z,21.10
2018-10-06T22:38:29.856Z,21.10
2018-10-06T22:41:02.479Z,21.00
2018-10-06T22:43:35.444Z,21.20
2018-10-06T22:46:07.999Z,21.20
2018-10-06T22:48:40.761Z,21.10
2018-10-06T22:51:13.816Z,21.20
2018-10-06T22:53:46.618Z,21.10
2018-10-06T22:56:19.375Z,21.30
2018-10-06T22:58:52.559Z,21.70
2018-10-06T23:01:25.096Z,21.80
2018-10-06T23:03:58.051Z,22.00
2018-10-06T23:06:30.775Z,21.90
2018-10-06T23:09:04.245Z,21.70
2018-10-06T23:11:37.070Z,21.40
2018-10-06T23:14:10.259Z,21.60
2018-10-06T23:16:43.179Z,21.90
2018-10-06T23:19:15.926Z,21.80
2018-10-06T23:21:48.615Z,21.70
2018-10-06T23:24:21.519Z,21.60
2018-10-06T23:26:54.398Z,21.50
2018-10-06T23:29:27.534Z,21.50
2018-10-06T23:32:00.342Z,21.50
2018-10-06T23:34:33.418Z,21.50
2018-10-06T23:37:06.234Z,21.50
2018-10-06T23:39:39.545Z,21.50
2018-10-06T23:42:12.134Z,21.50
2018-10-06T23:44:44.852Z,21.40
2018-10-06T23:47:17.783Z,21.30
2018-10-06T23:49:51.352Z,21.30
2018-10-06T23:52:24.694Z,21.20
2018-10-06T23:54:57.782Z,21.10
2018-10-06T23:57:30.535Z,21.10
